createdAt,value
2022-12-26T00:01:33.560Z,29.40
2022-12-26T00:04:03.771Z,34.33
2022-12-26T00:06:33.370Z,31.40
2022-12-26T00:09:03.865Z,34.40
2022-12-26T00:11:32.687Z,24.83
2022-12-26T00:14:03.337Z,27.10
2022-12-26T00:16:31.875Z,28.40
2022-12-26T00:19:00.504Z,32.10
2022-12-26T00:21:30.900Z,32.47
2022-12-26T00:24:00.806Z,37.00
2022-12-26T00:26:33.140Z,32.30
2022-12-26T00:29:01.687Z,43.17
2022-12-26T00:31:32.532Z,31.47
2022-12-26T00:34:01.143Z,43.23
2022-12-26T00:36:33.078Z,39.03
2022-12-26T00:39:03.185Z,43.63
2022-12-26T00:41:31.998Z,41.40
2022-12-26T00:44:01.888Z,40.30
2022-12-26T00:46:30.448Z,46.00
2022-12-26T00:48:58.992Z,37.80
2022-12-26T00:51:27.861Z,38.63
2022-12-26T00:53:57.764Z,33.40
2022-12-26T00:56:26.200Z,36.83
2022-12-26T00:58:54.789Z,46.03
2022-12-26T01:01:25.202Z,42.90
2022-12-26T01:03:53.937Z,35.23
2022-12-26T01:06:22.419Z,30.63
2022-12-26T01:08:50.889Z,28.73
2022-12-26T01:11:40.164Z,36.13
2022-12-26T01:14:11.397Z,26.70
2022-12-26T01:16:40.880Z,42.17
2022-12-26T01:19:09.681Z,31.40
2022-12-26T01:21:38.714Z,34.67
2022-12-26T01:24:07.801Z,39.77
2022-12-26T01:26:37.930Z,37.90
2022-12-26T01:29:06.384Z,45.37
2022-12-26T01:31:34.909Z,37.50
2022-12-26T01:34:03.420Z,32.10
2022-12-26T01:36:31.923Z,37.13
2022-12-26T01:39:00.371Z,36.07
2022-12-26T01:41:30.331Z,33.03
2022-12-26T01:44:02.432Z,38.83
2022-12-26T01:46:35.251Z,40.80
2022-12-26T01:49:13.798Z,35.87
2022-12-26T01:51:46.076Z,34.17
2022-12-26T01:54:37.382Z,44.10
2022-12-26T01:57:07.860Z,47.97
2022-12-26T01:59:41.718Z,41.27
2022-12-26T02:02:12.119Z,34.80
2022-12-26T02:05:02.415Z,37.97
2022-12-26T02:07:31.109Z,48.20
2022-12-26T02:09:59.711Z,39.23
2022-12-26T02:12:35.673Z,41.70
2022-12-26T02:15:11.248Z,45.10
2022-12-26T02:17:40.551Z,40.47
2022-12-26T02:20:18.497Z,39.40
2022-12-26T02:23:38.512Z,47.13
2022-12-26T02:26:37.418Z,36.83
2022-12-26T02:29:47.726Z,44.93
2022-12-26T02:32:24.719Z,38.93
2022-12-26T02:35:02.388Z,46.47
2022-12-26T02:37:45.832Z,37.07
2022-12-26T02:40:32.839Z,44.27
2022-12-26T02:43:07.739Z,39.70
2022-12-26T02:46:07.196Z,37.63
2022-12-26T02:48:46.211Z,38.50
2022-12-26T02:51:43.324Z,37.97
2022-12-26T02:54:44.745Z,41.30
2022-12-26T02:57:37.185Z,36.43
2022-12-26T03:00:27.471Z,36.13
2022-12-26T03:03:18.681Z,34.07
2022-12-26T03:06:11.243Z,36.67
2022-12-26T03:09:01.623Z,30.23
2022-12-26T03:11:50.804Z,40.83
2022-12-26T03:14:24.346Z,35.73
2022-12-26T03:17:27.135Z,36.20
2022-12-26T03:20:02.101Z,38.30
2022-12-26T03:22:40.390Z,40.93
2022-12-26T03:25:29.417Z,32.37
2022-12-26T03:27:59.616Z,37.23
2022-12-26T03:30:45.922Z,40.10
2022-12-26T03:33:28.399Z,34.83
2022-12-26T03:35:57.261Z,37.40
2022-12-26T03:38:34.221Z,35.60
2022-12-26T03:41:29.082Z,41.50
2022-12-26T03:44:32.521Z,30.30
2022-12-26T03:47:31.411Z,30.80
2022-12-26T03:50:26.659Z,30.43
2022-12-26T03:53:22.107Z,36.53
2022-12-26T03:56:15.743Z,27.00
2022-12-26T03:59:08.808Z,37.60
2022-12-26T04:01:58.033Z,33.30
2022-12-26T04:04:59.523Z,29.07
2022-12-26T04:07:56.746Z,26.90
2022-12-26T04:10:49.959Z,33.30
2022-12-26T04:13:41.709Z,30.50
2022-12-26T04:16:33.986Z,27.87
2022-12-26T04:19:25.817Z,26.20
2022-12-26T04:22:17.364Z,26.77
2022-12-26T04:25:11.681Z,29.57
2022-12-26T04:27:57.537Z,22.07
2022-12-26T04:30:45.122Z,28.77
2022-12-26T04:33:39.061Z,26.57
2022-12-26T04:36:28.452Z,25.57
2022-12-26T04:39:20.390Z,31.77
2022-12-26T04:42:09.021Z,35.20
2022-12-26T04:44:38.686Z,30.10
2022-12-26T04:47:09.391Z,34.50
2022-12-26T04:50:01.509Z,33.63
2022-12-26T04:52:51.339Z,32.80
2022-12-26T04:55:19.837Z,41.20
2022-12-26T04:57:48.597Z,40.63
2022-12-26T05:00:17.938Z,35.13
2022-12-26T05:03:05.426Z,36.07
2022-12-26T05:06:08.340Z,38.27
2022-12-26T05:08:57.129Z,34.50
2022-12-26T05:11:26.042Z,31.53
2022-12-26T05:13:55.326Z,37.80
2022-12-26T05:16:42.588Z,37.07
2022-12-26T05:19:31.093Z,32.50
2022-12-26T05:22:17.963Z,30.70
2022-12-26T05:25:04.818Z,34.53
2022-12-26T05:27:56.018Z,35.47
2022-12-26T05:30:25.284Z,32.33
2022-12-26T05:33:11.476Z,27.57
2022-12-26T05:35:42.026Z,24.67
2022-12-26T05:38:11.848Z,28.57
2022-12-26T05:40:40.336Z,29.90
2022-12-26T05:43:08.761Z,24.73
2022-12-26T05:45:37.318Z,23.50
2022-12-26T05:48:06.209Z,24.47
2022-12-26T05:50:34.749Z,17.87
2022-12-26T05:53:04.948Z,21.07
2022-12-26T05:55:33.480Z,22.27
2022-12-26T05:58:02.161Z,19.07
2022-12-26T06:00:31.305Z,19.97
2022-12-26T06:03:00.865Z,20.47
2022-12-26T06:05:29.741Z,20.23
2022-12-26T06:07:58.324Z,14.27
2022-12-26T06:10:29.628Z,14.07
2022-12-26T06:12:58.280Z,15.40
2022-12-26T06:15:26.796Z,14.73
2022-12-26T06:17:56.643Z,17.40
2022-12-26T06:20:25.145Z,15.30
2022-12-26T06:22:53.682Z,15.37
2022-12-26T06:25:22.283Z,13.07
2022-12-26T06:27:52.186Z,14.63
2022-12-26T06:30:20.870Z,14.80
2022-12-26T06:32:49.342Z,14.47
2022-12-26T06:35:18.073Z,13.30
2022-12-26T06:37:46.551Z,13.47
2022-12-26T06:40:15.210Z,15.40
2022-12-26T06:42:43.838Z,11.07
2022-12-26T06:45:14.019Z,13.07
2022-12-26T06:47:42.540Z,17.67
2022-12-26T06:50:11.332Z,12.03
2022-12-26T06:52:39.906Z,12.77
2022-12-26T06:55:09.486Z,12.40
2022-12-26T06:57:37.953Z,15.97
2022-12-26T07:00:07.739Z,14.43
2022-12-26T07:02:37.730Z,10.30
2022-12-26T07:05:07.320Z,17.23
2022-12-26T07:07:35.780Z,12.53
2022-12-26T07:10:04.372Z,13.97
2022-12-26T07:12:35.591Z,17.80
2022-12-26T07:15:04.202Z,12.57
2022-12-26T07:17:32.641Z,11.87
2022-12-26T07:20:02.496Z,11.07
2022-12-26T07:22:31.020Z,10.83
2022-12-26T07:24:59.835Z,11.07
2022-12-26T07:27:28.474Z,9.43
2022-12-26T07:29:56.967Z,8.63
2022-12-26T07:32:25.615Z,9.43
2022-12-26T07:34:54.197Z,8.17
2022-12-26T07:37:24.059Z,9.17
2022-12-26T07:39:58.753Z,10.40
2022-12-26T07:42:27.840Z,8.63
2022-12-26T07:44:56.328Z,10.83
2022-12-26T07:47:24.800Z,13.70
2022-12-26T07:49:54.320Z,9.77
2022-12-26T07:52:24.199Z,9.60
2022-12-26T07:54:52.719Z,11.40
2022-12-26T08:00:10.948Z,8.77
2022-12-26T08:02:42.464Z,10.30
2022-12-26T08:05:11.100Z,8.03
2022-12-26T08:07:41.333Z,9.67
2022-12-26T08:10:10.429Z,10.33
2022-12-26T08:12:39.957Z,9.93
2022-12-26T08:15:10.421Z,7.03
2022-12-26T08:17:39.135Z,10.07
2022-12-26T08:20:08.648Z,11.93
2022-12-26T08:22:37.263Z,5.43
2022-12-26T08:25:08.494Z,6.07
2022-12-26T08:27:37.005Z,10.70
2022-12-26T08:30:06.340Z,6.27
2022-12-26T08:32:36.198Z,7.07
2022-12-26T08:35:07.801Z,11.87
2022-12-26T08:37:36.260Z,18.00
2022-12-26T08:40:05.401Z,7.73
2022-12-26T08:42:44.794Z,9.13
2022-12-26T08:45:24.974Z,8.43
2022-12-26T08:47:55.929Z,7.20
2022-12-26T08:50:24.821Z,7.20
2022-12-26T08:52:53.320Z,10.17
2022-12-26T08:55:21.830Z,20.00
2022-12-26T08:57:51.684Z,7.13
2022-12-26T09:00:23.858Z,7.60
2022-12-26T09:02:52.526Z,7.33
2022-12-26T09:05:21.200Z,13.00
2022-12-26T09:07:49.717Z,7.47
2022-12-26T09:10:18.403Z,12.43
2022-12-26T09:12:46.889Z,14.90
2022-12-26T09:15:17.095Z,4.60
2022-12-26T09:17:45.702Z,8.63
2022-12-26T09:20:14.266Z,6.73
2022-12-26T09:22:51.451Z,4.70
2022-12-26T09:25:20.812Z,6.23
2022-12-26T09:27:55.588Z,4.67
2022-12-26T09:30:28.894Z,6.97
2022-12-26T09:32:57.390Z,4.03
2022-12-26T09:35:25.897Z,5.53
2022-12-26T09:37:54.463Z,4.13
2022-12-26T09:40:29.482Z,6.53
2022-12-26T09:43:13.379Z,6.43
2022-12-26T09:45:53.003Z,4.53
2022-12-26T09:48:28.424Z,7.63
2022-12-26T09:50:58.481Z,4.80
2022-12-26T09:53:33.159Z,10.03
2022-12-26T09:56:05.245Z,4.77
2022-12-26T09:58:40.835Z,4.97
2022-12-26T10:01:17.387Z,11.50
2022-12-26T10:03:48.004Z,12.57
2022-12-26T10:06:19.238Z,4.40
2022-12-26T10:09:05.797Z,6.73
2022-12-26T10:11:50.764Z,7.27
2022-12-26T10:14:28.880Z,8.63
2022-12-26T10:17:03.731Z,7.87
2022-12-26T10:19:53.431Z,16.43
2022-12-26T10:22:46.469Z,12.10
2022-12-26T10:25:21.107Z,7.07
2022-12-26T10:27:52.171Z,15.67
2022-12-26T10:30:24.062Z,8.70
2022-12-26T10:32:59.332Z,8.87
2022-12-26T10:35:33.389Z,4.63
2022-12-26T10:38:07.122Z,10.27
2022-12-26T10:40:39.407Z,13.50
2022-12-26T10:43:22.681Z,12.10
2022-12-26T10:46:14.849Z,7.43
2022-12-26T10:48:45.461Z,11.65
2022-12-26T10:51:14.030Z,15.63
2022-12-26T10:53:44.841Z,12.97
2022-12-26T10:56:18.077Z,7.13
2022-12-26T10:58:47.249Z,7.33
2022-12-26T11:01:33.523Z,10.60
2022-12-26T11:04:05.712Z,7.57
2022-12-26T11:06:38.547Z,8.83
2022-12-26T11:09:08.711Z,3.60
2022-12-26T11:11:47.483Z,5.90
2022-12-26T11:14:34.304Z,3.27
2022-12-26T11:17:06.116Z,3.97
2022-12-26T11:19:38.481Z,6.90
2022-12-26T11:22:23.413Z,5.03
2022-12-26T11:25:16.129Z,3.80
2022-12-26T11:27:47.425Z,5.03
2022-12-26T11:30:35.341Z,1.57
2022-12-26T11:33:14.840Z,6.67
2022-12-26T11:35:51.957Z,4.07
2022-12-26T11:38:45.061Z,5.40
2022-12-26T11:41:39.614Z,8.30
2022-12-26T11:44:23.040Z,4.30
2022-12-26T11:46:55.722Z,9.80
2022-12-26T11:49:29.987Z,6.40
2022-12-26T11:52:01.844Z,7.87
2022-12-26T11:54:36.897Z,7.40
2022-12-26T11:57:18.543Z,5.17
2022-12-26T11:59:48.105Z,3.70
2022-12-26T12:02:41.861Z,8.03
2022-12-26T12:05:15.848Z,4.03
2022-12-26T12:08:26.989Z,5.47
2022-12-26T12:11:17.732Z,4.60
2022-12-26T12:14:09.279Z,4.77
2022-12-26T12:16:53.327Z,3.57
2022-12-26T12:19:35.405Z,8.37
2022-12-26T12:22:24.712Z,3.53
2022-12-26T12:25:20.085Z,1.33
2022-12-26T12:27:54.290Z,3.07
2022-12-26T12:30:25.544Z,2.73
2022-12-26T12:33:10.282Z,3.50
2022-12-26T12:35:57.230Z,1.87
2022-12-26T12:38:30.873Z,6.03
2022-12-26T12:41:52.144Z,3.90
2022-12-26T12:44:26.050Z,6.17
2022-12-26T12:47:03.501Z,7.70
2022-12-26T12:49:49.773Z,9.73
2022-12-26T12:52:30.803Z,1.13
2022-12-26T12:55:23.448Z,5.27
2022-12-26T12:57:57.698Z,3.87
2022-12-26T13:00:28.985Z,3.37
2022-12-26T13:03:02.575Z,3.57
2022-12-26T13:05:41.623Z,3.90
2022-12-26T13:08:16.569Z,7.07
2022-12-26T13:10:50.787Z,3.43
2022-12-26T13:13:27.190Z,5.10
2022-12-26T13:16:00.422Z,4.10
2022-12-26T13:18:32.512Z,2.33
2022-12-26T13:21:04.983Z,5.67
2022-12-26T13:23:56.165Z,3.47
2022-12-26T13:26:30.703Z,8.50
2022-12-26T13:29:05.173Z,2.20
2022-12-26T13:31:34.954Z,0.87
2022-12-26T13:34:09.235Z,2.63
2022-12-26T13:36:42.306Z,11.53
2022-12-26T13:39:43.496Z,4.03
2022-12-26T13:42:50.668Z,3.47
2022-12-26T13:45:59.062Z,3.70
2022-12-26T13:49:08.054Z,1.93
2022-12-26T13:51:56.670Z,4.03
2022-12-26T13:54:27.630Z,5.70
2022-12-26T13:57:32.322Z,6.10
2022-12-26T14:00:12.761Z,2.77
2022-12-26T14:03:22.011Z,3.83
2022-12-26T14:06:21.673Z,4.43
2022-12-26T14:09:06.227Z,4.27
2022-12-26T14:11:54.002Z,11.20
2022-12-26T14:14:32.819Z,7.10
2022-12-26T14:17:14.037Z,8.70
2022-12-26T14:19:53.616Z,3.93
2022-12-26T14:22:29.580Z,16.83
2022-12-26T14:25:10.339Z,6.87
2022-12-26T14:27:45.912Z,10.37
2022-12-26T14:30:29.751Z,11.97
2022-12-26T14:33:25.727Z,7.30
2022-12-26T14:36:02.382Z,4.43
2022-12-26T14:38:41.056Z,7.53
2022-12-26T14:41:34.714Z,6.67
2022-12-26T14:44:17.265Z,4.53
2022-12-26T14:46:59.398Z,8.20
2022-12-26T14:49:40.253Z,17.80
2022-12-26T14:52:49.771Z,11.43
2022-12-26T14:55:42.983Z,4.47
2022-12-26T14:58:38.131Z,4.17
2022-12-26T15:01:46.131Z,8.77
2022-12-26T15:04:43.341Z,3.37
2022-12-26T15:07:41.090Z,4.43
2022-12-26T15:10:50.677Z,13.83
2022-12-26T15:13:52.723Z,2.40
2022-12-26T15:16:34.372Z,9.93
2022-12-26T15:20:00.167Z,17.93
2022-12-26T15:23:13.403Z,7.37
2022-12-26T15:26:08.266Z,4.77
2022-12-26T15:29:05.511Z,10.03
2022-12-26T15:31:44.280Z,8.40
2022-12-26T15:34:38.508Z,7.37
2022-12-26T15:37:16.027Z,12.37
2022-12-26T15:39:50.439Z,20.00
2022-12-26T15:42:30.921Z,11.27
2022-12-26T15:45:20.558Z,10.80
2022-12-26T15:48:00.458Z,8.77
2022-12-26T15:50:32.077Z,21.20
2022-12-26T15:53:14.961Z,11.97
2022-12-26T15:56:09.907Z,16.53
2022-12-26T15:58:58.327Z,13.00
2022-12-26T16:01:41.231Z,14.00
2022-12-26T16:04:18.627Z,12.73
2022-12-26T16:07:09.061Z,17.40
2022-12-26T16:09:44.754Z,15.00
2022-12-26T16:12:24.111Z,14.73
2022-12-26T16:15:03.081Z,11.27
2022-12-26T16:17:32.191Z,26.57
2022-12-26T16:20:19.073Z,14.17
2022-12-26T16:22:47.276Z,15.37
2022-12-26T16:25:19.367Z,20.95
2022-12-26T16:27:50.477Z,23.03
2022-12-26T16:30:23.428Z,21.20
2022-12-26T16:32:53.022Z,14.83
2022-12-26T16:35:26.314Z,10.77
2022-12-26T16:37:56.972Z,10.07
2022-12-26T16:40:29.178Z,4.07
2022-12-26T16:43:03.761Z,8.33
2022-12-26T16:45:35.111Z,9.90
2022-12-26T16:48:07.071Z,7.23
2022-12-26T16:50:45.993Z,11.63
2022-12-26T16:53:16.179Z,15.23
2022-12-26T16:55:46.868Z,8.70
2022-12-26T16:58:22.727Z,5.63
2022-12-26T17:01:03.788Z,9.87
2022-12-26T17:03:39.124Z,11.57
2022-12-26T17:06:13.587Z,20.43
2022-12-26T17:08:44.576Z,11.20
2022-12-26T17:11:13.540Z,11.93
2022-12-26T17:13:47.629Z,6.97
2022-12-26T17:16:16.167Z,13.60
2022-12-26T17:18:48.453Z,8.50
2022-12-26T17:21:24.015Z,9.00
2022-12-26T17:24:22.336Z,9.33
2022-12-26T17:27:10.065Z,16.63
2022-12-26T17:29:48.542Z,11.13
2022-12-26T17:32:27.758Z,10.17
2022-12-26T17:34:56.456Z,5.30
2022-12-26T17:37:28.272Z,10.60
2022-12-26T17:40:03.824Z,6.33
2022-12-26T17:42:40.885Z,11.83
2022-12-26T17:45:15.288Z,9.97
2022-12-26T17:47:43.820Z,10.90
2022-12-26T17:50:12.450Z,3.30
2022-12-26T17:52:42.468Z,11.40
2022-12-26T17:55:17.671Z,9.97
2022-12-26T17:57:46.273Z,11.37
2022-12-26T18:00:19.935Z,13.63
2022-12-26T18:02:48.592Z,12.57
2022-12-26T18:05:17.778Z,9.20
2022-12-26T18:07:48.469Z,12.83
2022-12-26T18:10:19.507Z,11.57
2022-12-26T18:12:48.575Z,12.93
2022-12-26T18:15:17.758Z,9.30
2022-12-26T18:17:47.178Z,10.27
2022-12-26T18:20:18.920Z,9.47
2022-12-26T18:22:49.071Z,11.40
2022-12-26T18:25:19.314Z,6.37
2022-12-26T18:27:48.355Z,5.10
2022-12-26T18:30:19.324Z,3.40
2022-12-26T18:32:49.638Z,6.13
2022-12-26T18:35:20.388Z,11.47
2022-12-26T18:37:53.789Z,16.77
2022-12-26T18:40:30.520Z,9.00
2022-12-26T18:42:59.123Z,11.87
2022-12-26T18:45:27.901Z,12.03
2022-12-26T18:47:56.550Z,11.60
2022-12-26T18:50:25.985Z,7.73
2022-12-26T18:52:56.185Z,4.10
2022-12-26T18:55:25.789Z,2.67
2022-12-26T18:57:54.772Z,4.43
2022-12-26T19:00:24.875Z,7.43
2022-12-26T19:02:55.459Z,10.17
2022-12-26T19:05:27.492Z,8.77
2022-12-26T19:07:58.185Z,9.07
2022-12-26T19:10:28.879Z,8.17
2022-12-26T19:13:04.793Z,5.20
2022-12-26T19:15:35.442Z,6.73
2022-12-26T19:18:04.823Z,9.23
2022-12-26T19:20:35.623Z,8.50
2022-12-26T19:23:07.592Z,5.83
2022-12-26T19:25:36.065Z,13.37
2022-12-26T19:28:04.591Z,6.77
2022-12-26T19:30:38.475Z,6.13
2022-12-26T19:33:08.016Z,7.73
2022-12-26T19:35:36.508Z,18.43
2022-12-26T19:38:04.924Z,12.13
2022-12-26T19:40:34.830Z,4.53
2022-12-26T19:43:03.330Z,12.10
2022-12-26T19:45:31.863Z,5.43
2022-12-26T19:48:00.397Z,10.37
2022-12-26T19:50:28.953Z,9.20
2022-12-26T19:52:57.489Z,10.23
2022-12-26T19:55:26.061Z,6.07
2022-12-26T19:57:56.214Z,9.70
2022-12-26T20:00:24.788Z,14.50
2022-12-26T20:02:53.363Z,15.03
2022-12-26T20:05:21.843Z,3.80
2022-12-26T20:07:50.365Z,7.97
2022-12-26T20:10:19.090Z,6.73
2022-12-26T20:12:47.596Z,5.07
2022-12-26T20:15:17.570Z,5.27
2022-12-26T20:17:46.111Z,11.17
2022-12-26T20:20:14.849Z,11.00
2022-12-26T20:22:46.957Z,7.17
2022-12-26T20:25:19.658Z,7.70
2022-12-26T20:27:48.342Z,6.77
2022-12-26T20:30:18.387Z,4.03
2022-12-26T20:32:47.553Z,16.77
2022-12-26T20:35:16.071Z,8.07
2022-12-26T20:37:44.600Z,8.13
2022-12-26T20:40:13.545Z,9.70
2022-12-26T20:42:42.192Z,10.97
2022-12-26T20:45:11.307Z,19.83
2022-12-26T20:47:41.181Z,1.83
2022-12-26T20:50:10.521Z,6.37
2022-12-26T20:52:39.032Z,3.30
2022-12-26T20:55:08.351Z,5.33
2022-12-26T20:57:36.987Z,5.80
2022-12-26T21:00:07.081Z,9.60
2022-12-26T21:02:35.747Z,5.23
2022-12-26T21:05:06.540Z,13.17
2022-12-26T21:07:35.064Z,7.83
2022-12-26T21:10:03.649Z,4.57
2022-12-26T21:12:32.181Z,8.17
2022-12-26T21:15:00.671Z,4.60
2022-12-26T21:17:29.212Z,3.33
2022-12-26T21:19:57.775Z,5.60
2022-12-26T21:22:27.699Z,9.53
2022-12-26T21:24:56.320Z,4.83
2022-12-26T21:27:24.797Z,4.63
2022-12-26T21:29:53.354Z,3.50
2022-12-26T21:32:21.919Z,6.57
2022-12-26T21:34:50.425Z,5.33
2022-12-26T21:37:36.164Z,9.80
2022-12-26T21:40:07.344Z,5.60
2022-12-26T21:42:35.874Z,8.00
2022-12-26T21:45:04.652Z,13.30
2022-12-26T21:47:33.214Z,6.30
2022-12-26T21:50:01.715Z,7.60
2022-12-26T21:52:30.186Z,3.37
2022-12-26T21:55:16.073Z,8.90
2022-12-26T21:57:45.897Z,6.60
2022-12-26T22:00:15.546Z,8.40
2022-12-26T22:03:01.570Z,9.27
2022-12-26T22:05:35.221Z,7.27
2022-12-26T22:08:04.922Z,4.23
2022-12-26T22:10:51.561Z,8.93
2022-12-26T22:13:22.984Z,6.37
2022-12-26T22:16:07.394Z,5.23
2022-12-26T22:18:38.636Z,8.70
2022-12-26T22:21:10.604Z,2.93
2022-12-26T22:23:40.299Z,10.57
2022-12-26T22:26:10.796Z,4.87
2022-12-26T22:28:41.557Z,10.97
2022-12-26T22:31:19.477Z,6.23
2022-12-26T22:33:48.273Z,15.63
2022-12-26T22:36:16.752Z,12.17
2022-12-26T22:38:45.270Z,9.07
2022-12-26T22:41:13.835Z,16.03
2022-12-26T22:43:44.169Z,7.27
2022-12-26T22:46:13.108Z,8.83
2022-12-26T22:48:41.803Z,5.03
2022-12-26T22:51:15.996Z,14.37
2022-12-26T22:53:44.510Z,13.97
2022-12-26T22:56:13.498Z,9.47
2022-12-26T22:58:43.311Z,5.97
2022-12-26T23:01:16.178Z,8.00
2022-12-26T23:03:44.985Z,9.90
2022-12-26T23:06:21.874Z,5.93
2022-12-26T23:08:52.916Z,7.37
2022-12-26T23:11:22.318Z,10.97
2022-12-26T23:13:52.848Z,6.30
2022-12-26T23:16:29.287Z,8.97
2022-12-26T23:19:18.641Z,5.73
2022-12-26T23:21:50.448Z,5.80
2022-12-26T23:24:21.388Z,8.40
2022-12-26T23:26:51.888Z,8.77
2022-12-26T23:29:41.545Z,12.57
2022-12-26T23:32:11.718Z,6.77
2022-12-26T23:34:40.315Z,6.97
2022-12-26T23:37:08.986Z,10.00
2022-12-26T23:39:37.493Z,10.63
2022-12-26T23:42:06.125Z,5.57
2022-12-26T23:44:35.951Z,10.87
2022-12-26T23:47:04.496Z,7.70
2022-12-26T23:49:33.013Z,8.70
2022-12-26T23:52:01.694Z,9.03
2022-12-26T23:54:30.212Z,7.27
2022-12-26T23:56:59.050Z,4.40
2022-12-26T23:59:27.718Z,10.67
